KWRB/WRB METAR and TAF weather

Enter ICAO airport designator
Station Type Date Time Source
KWRB METAR 2021/04/13 21:56 UTC NOAA

KWRB 132156Z 00000KT 10SM CLR 30/08 A3000 RMK AO2A SLP160 T03010079


Station Type Date Time Source
KWRB Decoded METAR 2021/04/13 21:56 UTC NOAA

Warner Robins Air Force Base, GA, United States (KWRB) 32-38N 083-36W
Apr 13, 2021 - 05:56 PM EDT / 2021.04.13 2156 UTC
Wind: Calm:0
Visibility: 10 mile(s):0
Sky conditions: clear
Temperature: 86.2 F (30.1 C)
Dew Point: 46.2 F (7.9 C)
Relative Humidity: 24%
Pressure (altimeter): 30 in. Hg (1015 hPa)
ob: KWRB 132156Z 00000KT 10SM CLR 30/08 A3000 RMK AO2A SLP160 T03010079
cycle: 22

Station Type Date Time Source
KWRB TAF 2021/04/13 16:12 UTC NOAA

TAF KWRB 131600Z 1316/1422 VRB06KT 9999 FEW250 QNH2998INS
BECMG 1317/1318 20010G15KT 9999 SCT100 BKN250 QNH2993INS TX31/1320Z TN14/1411Z

Example: see airport list